PIB weather

Public forecast

Using degrees Fahrenheit for public forecast. Weather courtesy of forecast.io.

Current aviation weather report (METAR) for Hattiesburg Laurel Regional Airport

Retrieved 2020/08/11 11:56 UTC (10 minutes ago):

KPIB 111156Z AUTO 00000KT 8SM CLR 24/23 A3005 RMK AO2 SLP173 T02440233 10256 20239 53008

Aviation forecast (TAF) for Hattiesburg Laurel Regional Airport

Retrieved 2020/08/11 12:57 UTC (0 seconds ago):

TAF KPIB 111156Z 1112/1212 28004KT P6SM FEW050 FM111900 27005KT P6SM -SHRA VCTS SCT050CB FM112200 22003KT P6SM SCT050